Time;durP1;ratioP1;P1;durP2;ratioP2;P2;SDS_P1;SDS_P2;PMS_P1;PMS_P2;Temp;Humidity;BMP_temperature;BMP_pressure;BME280_temperature;BME280_humidity;BME280_pressure;Samples;Min_cycle;Max_cycle;Signal;HPM_P1;HPM_P2
2021/06/30 00:01:38;;;;;;;5.93;4.13;;;;;;;;;;4989821;28;20160;-74
2021/06/30 00:04:03;;;;;;;8.25;3.90;;;;;;;;;;5005330;28;20034;-74
2021/06/30 00:06:29;;;;;;;8.15;3.85;;;;;;;;;;4989871;28;20038;-74
2021/06/30 00:08:55;;;;;;;7.03;3.53;;;;;;;;;;5005049;28;20026;-74
2021/06/30 00:11:22;;;;;;;7.13;3.65;;;;;;;;;;4989953;28;20518;-75
2021/06/30 00:13:47;;;;;;;4.63;3.67;;;;;;;;;;5021256;28;20057;-74
2021/06/30 00:16:13;;;;;;;8.50;3.70;;;;;;;;;;4989524;28;20034;-75
2021/06/30 00:18:39;;;;;;;5.30;3.53;;;;;;;;;;4990558;28;20054;-75
2021/06/30 00:21:05;;;;;;;6.25;3.70;;;;;;;;;;4988576;28;20552;-75
2021/06/30 00:23:31;;;;;;;5.75;2.92;;;;;;;;;;4989798;28;20041;-75
2021/06/30 00:25:57;;;;;;;4.78;3.50;;;;;;;;;;4989946;28;20109;-75
2021/06/30 00:28:23;;;;;;;5.45;3.47;;;;;;;;;;5021360;28;20031;-75
2021/06/30 00:30:48;;;;;;;5.30;3.30;;;;;;;;;;4989902;28;20085;-76
2021/06/30 00:33:14;;;;;;;4.90;3.45;;;;;;;;;;5004962;28;20125;-76
2021/06/30 00:35:40;;;;;;;5.15;3.30;;;;;;;;;;4989730;28;20030;-76
2021/06/30 00:38:05;;;;;;;4.30;2.97;;;;;;;;;;4990087;28;20030;-75
2021/06/30 00:40:31;;;;;;;3.85;2.60;;;;;;;;;;4989341;28;20047;-76
2021/06/30 00:42:56;;;;;;;5.80;3.35;;;;;;;;;;4992441;28;20497;-75
2021/06/30 00:45:22;;;;;;;6.25;3.03;;;;;;;;;;5025008;28;20034;-74
2021/06/30 00:47:47;;;;;;;5.32;3.30;;;;;;;;;;4993006;28;20030;-74
2021/06/30 00:50:18;;;;;;;5.32;3.05;;;;;;;;;;4992429;28;20033;-74
2021/06/30 00:52:44;;;;;;;5.35;3.13;;;;;;;;;;4992756;28;20034;-75
2021/06/30 00:55:10;;;;;;;3.78;2.80;;;;;;;;;;4992477;28;20570;-75
2021/06/30 00:57:36;;;;;;;5.28;3.67;;;;;;;;;;4993113;28;20022;-74
2021/06/30 01:00:05;;;;;;;3.72;2.95;;;;;;;;;;4993279;28;20042;-75
2021/06/30 01:02:31;;;;;;;5.40;3.65;;;;;;;;;;5008190;28;20061;-76
2021/06/30 01:04:56;;;;;;;4.47;3.65;;;;;;;;;;4993384;28;20034;-76
2021/06/30 01:07:21;;;;;;;6.45;3.95;;;;;;;;;;4993305;28;20045;-74
2021/06/30 01:09:47;;;;;;;8.23;3.88;;;;;;;;;;4993013;28;20026;-76
2021/06/30 01:12:12;;;;;;;5.22;3.70;;;;;;;;;;4993264;28;20053;-76
2021/06/30 01:14:38;;;;;;;8.93;4.00;;;;;;;;;;4992910;28;20030;-76
2021/06/30 01:17:06;;;;;;;4.13;3.70;;;;;;;;;;4991929;28;20026;-75
2021/06/30 01:19:34;;;;;;;7.10;3.72;;;;;;;;;;5024268;28;20486;-75
2021/06/30 01:22:00;;;;;;;3.90;3.47;;;;;;;;;;4991531;28;20394;-74
2021/06/30 01:24:25;;;;;;;5.72;3.70;;;;;;;;;;4992889;28;20033;-74
2021/06/30 01:26:51;;;;;;;6.82;3.85;;;;;;;;;;4992789;28;20474;-76
2021/06/30 01:29:19;;;;;;;7.55;3.90;;;;;;;;;;4993007;28;20035;-73
2021/06/30 01:31:46;;;;;;;6.95;3.97;;;;;;;;;;4991504;28;20052;-75
2021/06/30 01:34:12;;;;;;;4.95;3.92;;;;;;;;;;4992740;28;20478;-76
2021/06/30 01:36:47;;;;;;;5.70;3.88;;;;;;;;;;4992495;28;20053;-76
2021/06/30 01:39:14;;;;;;;7.07;3.45;;;;;;;;;;4993278;28;20037;-76
2021/06/30 01:41:40;;;;;;;10.70;3.88;;;;;;;;;;4991184;28;20418;-76
2021/06/30 01:44:06;;;;;;;7.40;4.28;;;;;;;;;;4991266;28;20038;-76
2021/06/30 01:46:31;;;;;;;10.93;3.88;;;;;;;;;;4991152;28;20372;-76
2021/06/30 01:48:57;;;;;;;6.63;3.53;;;;;;;;;;4991347;28;20030;-75
2021/06/30 01:51:22;;;;;;;4.32;3.50;;;;;;;;;;4992576;28;20034;-76
2021/06/30 01:53:48;;;;;;;3.75;3.35;;;;;;;;;;4991106;28;20030;-76
2021/06/30 01:56:14;;;;;;;4.18;3.15;;;;;;;;;;4992183;28;20061;-76
2021/06/30 01:58:39;;;;;;;6.65;3.70;;;;;;;;;;4992215;28;20038;-76
2021/06/30 02:01:05;;;;;;;4.30;3.17;;;;;;;;;;4992394;28;20027;-76
2021/06/30 02:03:32;;;;;;;8.65;3.67;;;;;;;;;;4992136;28;20034;-76
2021/06/30 02:05:57;;;;;;;4.22;2.65;;;;;;;;;;4991343;28;20026;-76
2021/06/30 02:08:23;;;;;;;7.30;2.75;;;;;;;;;;5007323;28;20482;-76
2021/06/30 02:10:48;;;;;;;7.18;3.33;;;;;;;;;;5006929;28;20074;-76
2021/06/30 02:13:14;;;;;;;4.63;3.15;;;;;;;;;;4990734;28;20031;-76
2021/06/30 02:15:41;;;;;;;4.68;3.00;;;;;;;;;;4991854;28;20030;-76
2021/06/30 02:18:08;;;;;;;3.20;2.90;;;;;;;;;;4990527;28;20026;-77
2021/06/30 02:20:33;;;;;;;3.60;3.08;;;;;;;;;;5022873;28;20046;-76
2021/06/30 02:22:59;;;;;;;5.95;3.25;;;;;;;;;;4990648;28;20030;-76
2021/06/30 02:25:28;;;;;;;5.90;3.33;;;;;;;;;;4992139;28;20038;-76
2021/06/30 02:27:54;;;;;;;6.38;3.50;;;;;;;;;;4992096;28;20042;-76
2021/06/30 02:30:26;;;;;;;4.93;3.50;;;;;;;;;;4990521;28;20327;-75
2021/06/30 02:32:52;;;;;;;;;;;;;;;;;;5023216;28;20038;-76
2021/06/30 02:35:20;;;;;;;5.93;3.38;;;;;;;;;;4991793;28;19910;-75
2021/06/30 02:37:48;;;;;;;3.25;2.72;;;;;;;;;;5022638;28;20379;-75
2021/06/30 02:40:15;;;;;;;5.13;3.60;;;;;;;;;;4990149;28;20037;-74
2021/06/30 02:42:41;;;;;;;6.53;4.30;;;;;;;;;;4991255;28;20034;-76
2021/06/30 02:45:09;;;;;;;3.53;3.22;;;;;;;;;;4991326;28;20096;-76
2021/06/30 02:47:37;;;;;;;8.13;3.25;;;;;;;;;;5006593;28;20045;-75
2021/06/30 02:50:05;;;;;;;4.35;2.75;;;;;;;;;;4991379;28;20163;-76
2021/06/30 02:52:30;;;;;;;4.53;3.00;;;;;;;;;;4991814;28;20096;-75
2021/06/30 02:54:56;;;;;;;6.18;3.47;;;;;;;;;;4989574;28;20507;-75
2021/06/30 02:57:21;;;;;;;6.25;3.17;;;;;;;;;;4991287;28;20395;-76
2021/06/30 02:59:47;;;;;;;5.10;3.72;;;;;;;;;;4991087;28;20037;-76
2021/06/30 03:02:12;;;;;;;6.65;3.40;;;;;;;;;;4991361;28;20065;-76
2021/06/30 03:04:38;;;;;;;5.47;3.63;;;;;;;;;;4990900;28;20026;-76
2021/06/30 03:07:04;;;;;;;3.60;3.20;;;;;;;;;;4991437;28;20411;-76
2021/06/30 03:09:29;;;;;;;5.10;3.83;;;;;;;;;;4991630;28;20037;-76
2021/06/30 03:11:55;;;;;;;5.53;3.70;;;;;;;;;;4992114;28;20399;-76
2021/06/30 03:14:20;;;;;;;3.80;3.15;;;;;;;;;;4992169;28;20109;-77
2021/06/30 03:16:49;;;;;;;8.35;4.03;;;;;;;;;;4991465;28;20117;-76
2021/06/30 03:19:16;;;;;;;6.93;3.60;;;;;;;;;;4991081;28;20022;-76
2021/06/30 03:21:42;;;;;;;20.52;10.88;;;;;;;;;;4991083;28;20034;-75
2021/06/30 03:24:08;;;;;;;10.15;4.05;;;;;;;;;;4990587;28;20034;-76
2021/06/30 03:26:35;;;;;;;5.00;3.45;;;;;;;;;;4990625;28;20493;-75
2021/06/30 03:29:02;;;;;;;4.28;3.88;;;;;;;;;;5005813;28;20555;-76
2021/06/30 03:31:27;;;;;;;9.65;3.88;;;;;;;;;;4990949;28;20026;-76
2021/06/30 03:33:53;;;;;;;8.07;4.68;;;;;;;;;;4990701;28;20125;-75
2021/06/30 03:36:18;;;;;;;6.25;4.20;;;;;;;;;;5005569;28;20061;-76
2021/06/30 03:38:44;;;;;;;9.98;4.38;;;;;;;;;;5005510;28;20033;-77
2021/06/30 03:41:09;;;;;;;12.35;4.82;;;;;;;;;;4989181;28;20041;-76
2021/06/30 03:43:35;;;;;;;5.50;4.32;;;;;;;;;;4989143;28;20514;-75
2021/06/30 03:46:00;;;;;;;6.32;4.97;;;;;;;;;;4990412;28;20053;-77
2021/06/30 03:48:26;;;;;;;10.23;4.30;;;;;;;;;;4990404;28;20394;-76
2021/06/30 03:50:51;;;;;;;8.95;4.88;;;;;;;;;;4990072;28;20117;-75
2021/06/30 03:53:17;;;;;;;6.93;4.22;;;;;;;;;;5005524;28;20034;-75
2021/06/30 03:55:42;;;;;;;7.22;4.85;;;;;;;;;;4989506;28;20128;-76
2021/06/30 03:58:08;;;;;;;7.65;4.15;;;;;;;;;;4989118;28;20488;-75
2021/06/30 04:00:33;;;;;;;10.50;5.30;;;;;;;;;;4990716;28;20034;-75
2021/06/30 04:02:59;;;;;;;7.53;4.70;;;;;;;;;;4990163;28;20458;-75
2021/06/30 04:05:24;;;;;;;9.82;5.70;;;;;;;;;;4990182;28;20032;-76
2021/06/30 04:07:50;;;;;;;6.80;4.43;;;;;;;;;;4990209;28;20034;-76
2021/06/30 04:10:19;;;;;;;8.27;4.72;;;;;;;;;;4990073;28;20392;-76
2021/06/30 04:12:44;;;;;;;6.47;4.18;;;;;;;;;;4988498;28;20022;-76
2021/06/30 04:15:10;;;;;;;5.32;4.03;;;;;;;;;;4989844;28;20121;-75
2021/06/30 04:17:37;;;;;;;5.28;4.20;;;;;;;;;;5020782;28;20038;-74
2021/06/30 04:20:08;;;;;;;7.65;4.90;;;;;;;;;;4990095;28;20030;-76
2021/06/30 04:22:34;;;;;;;6.28;4.22;;;;;;;;;;4989957;28;20433;-77
2021/06/30 04:25:01;;;;;;;4.55;3.80;;;;;;;;;;4989558;28;20038;-76
2021/06/30 04:27:27;;;;;;;6.70;3.63;;;;;;;;;;4989972;28;20069;-76
2021/06/30 04:29:52;;;;;;;6.82;4.00;;;;;;;;;;4990003;28;20042;-76
2021/06/30 04:32:18;;;;;;;8.02;4.07;;;;;;;;;;5021542;28;20482;-76
2021/06/30 04:34:43;;;;;;;6.47;3.53;;;;;;;;;;4988429;28;20076;-77
2021/06/30 04:37:09;;;;;;;5.82;3.83;;;;;;;;;;4988353;28;20038;-76
2021/06/30 04:39:36;;;;;;;8.25;4.35;;;;;;;;;;5004816;28;20062;-76
2021/06/30 04:42:02;;;;;;;6.10;4.10;;;;;;;;;;4989273;28;20026;-76
2021/06/30 04:44:27;;;;;;;4.13;3.63;;;;;;;;;;4988441;28;20030;-76
2021/06/30 04:46:53;;;;;;;7.65;3.75;;;;;;;;;;5004713;28;20049;-76
2021/06/30 04:49:18;;;;;;;8.05;4.15;;;;;;;;;;5021482;28;20030;-77
2021/06/30 04:51:45;;;;;;;7.60;4.22;;;;;;;;;;4989622;28;20034;-77
2021/06/30 04:54:11;;;;;;;9.60;3.90;;;;;;;;;;4988281;28;20023;-76
2021/06/30 04:56:41;;;;;;;7.22;4.28;;;;;;;;;;4989141;28;20047;-76
2021/06/30 04:59:07;;;;;;;6.65;3.88;;;;;;;;;;4988313;28;20128;-77
2021/06/30 05:01:33;;;;;;;6.35;4.47;;;;;;;;;;4989311;28;20470;-76
2021/06/30 05:03:59;;;;;;;7.53;4.10;;;;;;;;;;4989639;28;20469;-76
2021/06/30 05:06:24;;;;;;;6.25;4.07;;;;;;;;;;4988449;28;20026;-77
2021/06/30 05:08:50;;;;;;;7.30;3.67;;;;;;;;;;4988106;28;20109;-75
2021/06/30 05:11:16;;;;;;;7.13;3.85;;;;;;;;;;4989487;28;20433;-77
2021/06/30 05:13:41;;;;;;;9.35;4.45;;;;;;;;;;4989432;28;20034;-76
2021/06/30 05:16:08;;;;;;;4.93;3.53;;;;;;;;;;4989549;28;20109;-77
2021/06/30 05:18:33;;;;;;;6.25;3.90;;;;;;;;;;4987834;28;20033;-77
2021/06/30 05:20:59;;;;;;;6.03;3.67;;;;;;;;;;4988930;28;20026;-77
2021/06/30 05:23:25;;;;;;;5.72;4.25;;;;;;;;;;4989595;28;20031;-77
2021/06/30 05:25:52;;;;;;;9.00;3.67;;;;;;;;;;4987765;28;20030;-76
2021/06/30 05:28:17;;;;;;;7.15;3.80;;;;;;;;;;4992178;28;20061;-75
2021/06/30 05:30:43;;;;;;;4.60;3.60;;;;;;;;;;4993329;28;20022;-75
2021/06/30 05:33:08;;;;;;;4.65;3.53;;;;;;;;;;4992526;28;20037;-74
2021/06/30 05:35:34;;;;;;;5.00;3.10;;;;;;;;;;4992078;28;20037;-74
2021/06/30 05:37:59;;;;;;;5.07;3.10;;;;;;;;;;4992492;28;20580;-75
2021/06/30 05:40:25;;;;;;;5.03;3.22;;;;;;;;;;4991192;28;20033;-75
2021/06/30 05:42:51;;;;;;;5.22;3.13;;;;;;;;;;4990889;28;20022;-75
2021/06/30 05:45:17;;;;;;;4.07;3.42;;;;;;;;;;4991838;28;20153;-76
2021/06/30 05:47:46;;;;;;;4.78;3.20;;;;;;;;;;4991882;28;20101;-75
2021/06/30 05:50:13;;;;;;;5.38;3.33;;;;;;;;;;5007337;28;20393;-75
2021/06/30 05:52:40;;;;;;;3.80;3.13;;;;;;;;;;4992483;28;20026;-76
2021/06/30 05:55:07;;;;;;;4.05;3.17;;;;;;;;;;5006726;28;20053;-74
2021/06/30 05:57:34;;;;;;;4.72;3.63;;;;;;;;;;5006598;28;20030;-74
2021/06/30 06:00:00;;;;;;;3.45;2.95;;;;;;;;;;4991982;28;20053;-75
2021/06/30 06:02:27;;;;;;;3.40;2.97;;;;;;;;;;4990663;28;20034;-75
2021/06/30 06:04:53;;;;;;;3.25;2.92;;;;;;;;;;4991496;28;20629;-76
2021/06/30 06:07:18;;;;;;;8.93;3.05;;;;;;;;;;4991947;28;20026;-74
2021/06/30 06:09:45;;;;;;;3.42;3.10;;;;;;;;;;4984213;28;20052;-74
2021/06/30 06:12:10;;;;;;;5.00;3.47;;;;;;;;;;4992034;28;20030;-75
2021/06/30 06:14:36;;;;;;;3.88;2.80;;;;;;;;;;4991460;28;20470;-75
2021/06/30 06:17:01;;;;;;;6.07;4.15;;;;;;;;;;5024564;28;20030;-75
2021/06/30 06:19:27;;;;;;;7.97;3.63;;;;;;;;;;5007300;28;20089;-77
2021/06/30 06:21:53;;;;;;;3.67;3.15;;;;;;;;;;4991174;28;20022;-75
2021/06/30 06:24:19;;;;;;;6.00;3.70;;;;;;;;;;4991427;28;20101;-75
2021/06/30 06:26:46;;;;;;;4.13;2.80;;;;;;;;;;4990996;28;20110;-75
2021/06/30 06:29:12;;;;;;;6.60;3.58;;;;;;;;;;5008464;28;20085;-75
2021/06/30 06:31:39;;;;;;;6.20;3.22;;;;;;;;;;5004320;28;20442;-75
2021/06/30 06:34:07;;;;;;;6.22;3.55;;;;;;;;;;4987131;28;20490;-76
2021/06/30 06:36:35;;;;;;;3.83;2.55;;;;;;;;;;5020787;28;20057;-76
2021/06/30 06:39:04;;;;;;;5.45;3.83;;;;;;;;;;5003765;28;20042;-76
2021/06/30 06:41:31;;;;;;;3.40;2.72;;;;;;;;;;4988965;28;20022;-75
2021/06/30 06:43:56;;;;;;;5.18;3.08;;;;;;;;;;5005087;28;20031;-76
2021/06/30 06:46:22;;;;;;;6.03;2.78;;;;;;;;;;5021451;28;20113;-76
2021/06/30 06:48:47;;;;;;;3.13;2.83;;;;;;;;;;4988314;28;20030;-76
2021/06/30 06:51:13;;;;;;;2.90;2.60;;;;;;;;;;4990595;28;20060;-76
2021/06/30 06:53:38;;;;;;;5.43;3.58;;;;;;;;;;5005289;28;20427;-75
2021/06/30 06:56:08;;;;;;;6.13;3.08;;;;;;;;;;5019741;28;20153;-76
2021/06/30 06:58:34;;;;;;;4.82;3.00;;;;;;;;;;4986662;28;20033;-75
2021/06/30 07:01:02;;;;;;;3.83;3.08;;;;;;;;;;4988201;28;20052;-75
2021/06/30 07:03:27;;;;;;;7.85;3.53;;;;;;;;;;4989827;28;20454;-76
2021/06/30 07:05:53;;;;;;;11.88;3.15;;;;;;;;;;4990268;28;20026;-76
2021/06/30 07:08:18;;;;;;;4.35;3.22;;;;;;;;;;5021629;28;20034;-74
2021/06/30 07:10:44;;;;;;;5.50;3.10;;;;;;;;;;4989991;28;20029;-76
2021/06/30 07:13:10;;;;;;;4.53;3.20;;;;;;;;;;4990754;28;20513;-76
2021/06/30 07:15:38;;;;;;;9.48;3.83;;;;;;;;;;4990252;28;20073;-74
2021/06/30 07:18:03;;;;;;;6.68;2.90;;;;;;;;;;5020465;28;20030;-76
2021/06/30 07:20:29;;;;;;;9.90;3.85;;;;;;;;;;4995660;28;20471;-76
2021/06/30 07:22:55;;;;;;;5.03;3.28;;;;;;;;;;4988511;28;20117;-76
2021/06/30 07:25:20;;;;;;;6.10;3.45;;;;;;;;;;5019823;28;20121;-76
2021/06/30 07:27:46;;;;;;;3.60;3.17;;;;;;;;;;4987051;28;20030;-75
2021/06/30 07:30:12;;;;;;;9.75;3.63;;;;;;;;;;4987491;28;20041;-75
2021/06/30 07:32:38;;;;;;;14.38;3.88;;;;;;;;;;4990018;28;20114;-75
2021/06/30 07:35:04;;;;;;;9.07;4.10;;;;;;;;;;4987571;28;20117;-75
2021/06/30 07:37:29;;;;;;;5.25;3.92;;;;;;;;;;4989942;28;20118;-76
2021/06/30 07:39:55;;;;;;;7.07;3.10;;;;;;;;;;4989749;28;20038;-77
2021/06/30 07:42:21;;;;;;;25.25;5.35;;;;;;;;;;4997552;28;20129;-76
2021/06/30 07:44:49;;;;;;;8.75;3.60;;;;;;;;;;4989961;28;20470;-76
2021/06/30 07:47:15;;;;;;;7.75;2.95;;;;;;;;;;4989731;28;20030;-77
2021/06/30 07:49:40;;;;;;;5.45;3.50;;;;;;;;;;4987738;28;20034;-76
2021/06/30 07:52:06;;;;;;;5.40;3.67;;;;;;;;;;4988070;28;20037;-75
2021/06/30 07:54:33;;;;;;;8.52;3.58;;;;;;;;;;4990447;28;20486;-76
2021/06/30 07:56:59;;;;;;;5.97;3.38;;;;;;;;;;4986684;28;20146;-76
2021/06/30 07:59:24;;;;;;;10.93;3.95;;;;;;;;;;4988354;28;20042;-76
2021/06/30 08:01:50;;;;;;;4.72;3.15;;;;;;;;;;4987158;28;20026;-77
2021/06/30 08:04:15;;;;;;;9.10;3.65;;;;;;;;;;5002636;28;20100;-76
2021/06/30 08:06:41;;;;;;;6.18;3.83;;;;;;;;;;4988679;28;20126;-77
2021/06/30 08:09:07;;;;;;;5.28;3.40;;;;;;;;;;4989544;28;20109;-77
2021/06/30 08:11:33;;;;;;;6.72;3.70;;;;;;;;;;4986582;28;20434;-77
2021/06/30 08:13:58;;;;;;;4.53;3.30;;;;;;;;;;4988252;28;20038;-76
2021/06/30 08:16:24;;;;;;;4.38;3.33;;;;;;;;;;4989383;28;20032;-75
2021/06/30 08:18:49;;;;;;;4.15;3.55;;;;;;;;;;4989077;28;20038;-76
2021/06/30 08:21:20;;;;;;;5.90;3.97;;;;;;;;;;4987557;28;20519;-75
2021/06/30 08:23:46;;;;;;;11.20;4.13;;;;;;;;;;4989084;28;20034;-76
2021/06/30 08:26:12;;;;;;;21.77;4.80;;;;;;;;;;4989335;28;20274;-77
2021/06/30 08:28:38;;;;;;;3.92;3.53;;;;;;;;;;5020892;28;20062;-79
2021/06/30 08:31:04;;;;;;;6.00;3.55;;;;;;;;;;5003717;28;20454;-77
2021/06/30 08:33:29;;;;;;;3.53;3.20;;;;;;;;;;4989006;28;20442;-77
2021/06/30 08:35:55;;;;;;;5.00;3.42;;;;;;;;;;4988656;28;20143;-76
2021/06/30 08:38:22;;;;;;;7.50;4.82;;;;;;;;;;4989255;28;20418;-77
2021/06/30 08:40:52;;;;;;;4.35;3.88;;;;;;;;;;4986876;28;20073;-77
2021/06/30 08:43:17;;;;;;;5.03;3.50;;;;;;;;;;4987240;28;20030;-77
2021/06/30 08:45:44;;;;;;;4.22;3.83;;;;;;;;;;4986845;28;20032;-78
2021/06/30 08:48:10;;;;;;;4.80;3.15;;;;;;;;;;4985919;28;20026;-76
2021/06/30 08:50:39;;;;;;;6.63;3.30;;;;;;;;;;4988353;28;20022;-78
2021/06/30 08:53:09;;;;;;;6.38;2.72;;;;;;;;;;4986269;28;20041;-77
2021/06/30 08:55:37;;;;;;;4.63;2.88;;;;;;;;;;4986890;28;20066;-78
2021/06/30 08:58:03;;;;;;;3.95;3.05;;;;;;;;;;4988330;28;20034;-77
2021/06/30 09:00:29;;;;;;;6.47;3.30;;;;;;;;;;4990591;28;20032;-77
2021/06/30 09:02:59;;;;;;;4.07;3.20;;;;;;;;;;4997226;28;20040;-77
2021/06/30 09:07:54;;;;;;;3.00;2.80;;;;;;;;;;5003278;28;20030;-78
2021/06/30 09:10:36;;;;;;;5.63;3.33;;;;;;;;;;4990900;28;20038;-77
2021/06/30 09:13:17;;;;;;;5.65;3.30;;;;;;;;;;4991209;28;20366;-77
2021/06/30 09:15:43;;;;;;;9.47;3.10;;;;;;;;;;4991042;28;20033;-78
2021/06/30 09:18:28;;;;;;;3.10;2.75;;;;;;;;;;4990518;28;20026;-78
2021/06/30 09:21:22;;;;;;;5.68;3.55;;;;;;;;;;4991545;28;20034;-77
2021/06/30 09:24:11;;;;;;;8.27;4.03;;;;;;;;;;4991644;28;20034;-77
2021/06/30 09:26:50;;;;;;;3.38;2.88;;;;;;;;;;4990831;28;20148;-78
2021/06/30 09:29:18;;;;;;;2.88;2.67;;;;;;;;;;4996526;28;20072;-77
2021/06/30 09:31:49;;;;;;;6.35;2.78;;;;;;;;;;4990587;28;20049;-77
2021/06/30 09:34:20;;;;;;;2.95;2.65;;;;;;;;;;4992406;28;20062;-78
2021/06/30 09:36:51;;;;;;;4.85;2.72;;;;;;;;;;4990815;28;20034;-76
2021/06/30 09:39:20;;;;;;;3.28;2.75;;;;;;;;;;4992450;28;20087;-78
2021/06/30 09:41:47;;;;;;;5.65;2.58;;;;;;;;;;4990958;28;20041;-79
2021/06/30 09:44:17;;;;;;;7.13;3.10;;;;;;;;;;4991143;28;20026;-77
2021/06/30 09:46:43;;;;;;;4.15;2.53;;;;;;;;;;4986908;28;20394;-77
2021/06/30 09:49:16;;;;;;;5.50;2.63;;;;;;;;;;4990855;28;20128;-76
2021/06/30 09:51:43;;;;;;;3.80;3.03;;;;;;;;;;4993281;28;20026;-77
2021/06/30 09:54:17;;;;;;;6.15;2.90;;;;;;;;;;5005807;28;20474;-77
2021/06/30 09:57:07;;;;;;;3.85;2.70;;;;;;;;;;5019726;28;20542;-77
2021/06/30 09:59:38;;;;;;;3.83;2.20;;;;;;;;;;5006931;28;20034;-78
2021/06/30 10:02:17;;;;;;;3.80;2.35;;;;;;;;;;4990807;28;20587;-77
2021/06/30 10:04:56;;;;;;;11.73;3.13;;;;;;;;;;4990868;28;20049;-76
2021/06/30 10:07:24;;;;;;;6.10;2.72;;;;;;;;;;4990870;28;20379;-77
2021/06/30 10:09:52;;;;;;;3.67;1.98;;;;;;;;;;4991487;28;20033;-77
2021/06/30 10:12:23;;;;;;;8.35;2.10;;;;;;;;;;4991110;28;20022;-77
2021/06/30 10:14:49;;;;;;;4.43;2.20;;;;;;;;;;4987746;28;20022;-78
2021/06/30 10:17:15;;;;;;;7.72;2.50;;;;;;;;;;4991233;28;20396;-76
2021/06/30 10:19:43;;;;;;;2.83;2.63;;;;;;;;;;5005805;28;20034;-76
2021/06/30 10:22:10;;;;;;;5.90;2.95;;;;;;;;;;5002172;28;20073;-76
2021/06/30 10:24:38;;;;;;;2.67;2.30;;;;;;;;;;4990606;28;20069;-75
2021/06/30 10:27:05;;;;;;;3.33;2.10;;;;;;;;;;4988829;28;20138;-77
2021/06/30 10:29:34;;;;;;;3.08;2.30;;;;;;;;;;4988594;28;20498;-76
2021/06/30 10:32:04;;;;;;;6.55;3.08;;;;;;;;;;4988972;28;20490;-77
2021/06/30 10:35:04;;;;;;;3.15;2.45;;;;;;;;;;4990681;28;20592;-75
2021/06/30 10:37:32;;;;;;;4.13;2.47;;;;;;;;;;4986145;28;20038;-77
2021/06/30 10:40:04;;;;;;;5.75;2.35;;;;;;;;;;4989858;28;20030;-77
2021/06/30 10:42:36;;;;;;;7.10;2.67;;;;;;;;;;4990542;28;20034;-76
2021/06/30 10:45:07;;;;;;;7.28;2.35;;;;;;;;;;4988210;28;20081;-78
2021/06/30 10:47:50;;;;;;;7.97;2.90;;;;;;;;;;4989700;28;20050;-78
2021/06/30 10:50:37;;;;;;;2.60;2.40;;;;;;;;;;4989241;28;20026;-77
2021/06/30 10:53:12;;;;;;;3.85;2.55;;;;;;;;;;4989000;28;20509;-76
2021/06/30 10:55:41;;;;;;;2.92;2.35;;;;;;;;;;5004985;28;20520;-77
2021/06/30 10:58:19;;;;;;;2.42;2.22;;;;;;;;;;4989860;28;20022;-76
2021/06/30 11:00:54;;;;;;;3.95;2.40;;;;;;;;;;4989810;28;20045;-77
2021/06/30 11:04:01;;;;;;;3.58;2.15;;;;;;;;;;5003149;28;20522;-76
2021/06/30 11:06:31;;;;;;;2.95;2.50;;;;;;;;;;4968024;28;20031;-77
2021/06/30 11:09:23;;;;;;;7.03;2.80;;;;;;;;;;4982277;28;20125;-77
2021/06/30 11:11:55;;;;;;;2.75;2.17;;;;;;;;;;4988421;28;20546;-76
2021/06/30 11:14:36;;;;;;;3.80;2.08;;;;;;;;;;4986822;28;20038;-76
2021/06/30 11:17:02;;;;;;;2.88;2.17;;;;;;;;;;4987107;28;20046;-77
2021/06/30 11:19:30;;;;;;;1.98;1.88;;;;;;;;;;4987863;28;20045;-77
2021/06/30 11:22:01;;;;;;;2.13;1.92;;;;;;;;;;4987694;28;20061;-77
2021/06/30 11:24:49;;;;;;;3.50;2.38;;;;;;;;;;5003935;28;20033;-77
2021/06/30 11:27:16;;;;;;;2.03;1.80;;;;;;;;;;4987696;28;20034;-76
2021/06/30 11:30:03;;;;;;;4.15;2.20;;;;;;;;;;4989556;28;20034;-76
2021/06/30 11:32:39;;;;;;;2.92;2.20;;;;;;;;;;4988980;28;20030;-75
2021/06/30 11:35:23;;;;;;;2.88;2.58;;;;;;;;;;5004323;28;20106;-77
2021/06/30 11:37:58;;;;;;;5.75;2.45;;;;;;;;;;5003799;28;20386;-76
2021/06/30 11:42:53;;;;;;;2.50;2.25;;;;;;;;;;5020293;28;20034;-76
2021/06/30 11:45:26;;;;;;;2.65;2.03;;;;;;;;;;4990046;28;20042;-75
2021/06/30 11:47:53;;;;;;;2.67;2.30;;;;;;;;;;4988426;28;20113;-77
2021/06/30 11:50:25;;;;;;;2.97;2.17;;;;;;;;;;4987534;28;20030;-76
2021/06/30 11:52:52;;;;;;;3.70;2.00;;;;;;;;;;4987887;28;20069;-76
2021/06/30 11:55:20;;;;;;;4.57;1.98;;;;;;;;;;4993313;28;20065;-76
2021/06/30 11:57:58;;;;;;;3.10;2.60;;;;;;;;;;4987422;28;20092;-77
2021/06/30 12:00:27;;;;;;;2.97;1.90;;;;;;;;;;4989340;28;20026;-76
2021/06/30 12:02:56;;;;;;;5.45;2.47;;;;;;;;;;4989032;28;20040;-77
2021/06/30 12:05:24;;;;;;;5.10;2.25;;;;;;;;;;5003238;28;20060;-76
2021/06/30 12:07:54;;;;;;;2.95;2.10;;;;;;;;;;5007990;28;20032;-77
2021/06/30 12:10:19;;;;;;;6.38;2.55;;;;;;;;;;5007269;28;20026;-77
2021/06/30 12:12:46;;;;;;;2.70;2.50;;;;;;;;;;5006819;28;20033;-77
2021/06/30 12:15:13;;;;;;;5.70;2.15;;;;;;;;;;5003978;28;20480;-77
2021/06/30 12:17:47;;;;;;;2.67;1.58;;;;;;;;;;4986699;28;20358;-77
2021/06/30 12:20:15;;;;;;;2.80;1.80;;;;;;;;;;4998575;28;20054;-77
2021/06/30 12:22:41;;;;;;;2.33;1.70;;;;;;;;;;4984740;28;20026;-77
2021/06/30 12:25:16;;;;;;;2.45;1.95;;;;;;;;;;5003443;28;20113;-76
2021/06/30 12:27:45;;;;;;;1.98;1.75;;;;;;;;;;5002975;28;20121;-77
2021/06/30 12:30:23;;;;;;;3.90;1.60;;;;;;;;;;4987248;28;20031;-77
2021/06/30 12:32:55;;;;;;;3.30;1.90;;;;;;;;;;4988895;28;20470;-77
2021/06/30 12:35:29;;;;;;;5.22;1.92;;;;;;;;;;4989640;28;20547;-76
2021/06/30 12:38:10;;;;;;;4.75;2.00;;;;;;;;;;4989475;28;20032;-75
2021/06/30 12:40:37;;;;;;;1.60;1.50;;;;;;;;;;4992098;28;20034;-76
2021/06/30 12:43:15;;;;;;;2.45;1.80;;;;;;;;;;4992642;28;20121;-76
2021/06/30 12:45:49;;;;;;;4.28;2.20;;;;;;;;;;4993019;28;20034;-76
2021/06/30 12:48:17;;;;;;;1.92;1.67;;;;;;;;;;4992589;28;20510;-74
2021/06/30 12:50:54;;;;;;;1.50;1.40;;;;;;;;;;4992617;28;20038;-77
2021/06/30 12:53:31;;;;;;;5.72;2.22;;;;;;;;;;4992208;28;20022;-74
2021/06/30 12:56:08;;;;;;;10.80;1.50;;;;;;;;;;4991998;28;20046;-73
2021/06/30 12:58:52;;;;;;;2.15;1.38;;;;;;;;;;4992018;28;20109;-77
2021/06/30 13:01:31;;;;;;;1.55;1.45;;;;;;;;;;4986491;28;20066;-74
2021/06/30 13:03:59;;;;;;;1.80;1.30;;;;;;;;;;4984670;28;20057;-75
2021/06/30 13:06:32;;;;;;;1.75;1.33;;;;;;;;;;5007281;28;20320;-75
2021/06/30 13:09:02;;;;;;;2.13;1.30;;;;;;;;;;4988873;28;20026;-75
2021/06/30 13:11:28;;;;;;;1.33;1.13;;;;;;;;;;5006946;28;20022;-75
2021/06/30 13:14:13;;;;;;;8.40;1.77;;;;;;;;;;4990351;28;20073;-75
2021/06/30 13:16:58;;;;;;;1.52;1.35;;;;;;;;;;5023355;28;20033;-76
2021/06/30 13:19:48;;;;;;;1.40;1.30;;;;;;;;;;4990940;28;20036;-76
2021/06/30 13:22:15;;;;;;;2.55;1.60;;;;;;;;;;4991316;28;20073;-77
2021/06/30 13:24:49;;;;;;;6.53;1.80;;;;;;;;;;4990785;28;20042;-77
2021/06/30 13:35:49;;;;;;;2.28;1.70;;;;;;;;;;4992440;28;20037;-74
2021/06/30 13:38:19;;;;;;;1.58;1.48;;;;;;;;;;4997654;28;20117;-75
2021/06/30 13:40:51;;;;;;;5.53;1.73;;;;;;;;;;5004614;28;20549;-76
2021/06/30 13:43:17;;;;;;;4.07;2.05;;;;;;;;;;4985391;28;20046;-77
2021/06/30 13:45:49;;;;;;;5.72;1.85;;;;;;;;;;4988698;28;20046;-76
2021/06/30 13:48:17;;;;;;;4.60;1.77;;;;;;;;;;4993133;28;20339;-76
2021/06/30 13:50:46;;;;;;;2.08;1.70;;;;;;;;;;4991806;28;20045;-77
2021/06/30 13:53:13;;;;;;;1.10;1.10;;;;;;;;;;4995217;28;20030;-76
2021/06/30 13:55:40;;;;;;;2.20;1.20;;;;;;;;;;5025047;28;20097;-75
2021/06/30 13:58:06;;;;;;;4.75;1.52;;;;;;;;;;4991397;28;20048;-75
2021/06/30 14:00:32;;;;;;;1.52;1.23;;;;;;;;;;4992267;28;20113;-75
2021/06/30 14:03:01;;;;;;;1.30;1.20;;;;;;;;;;4991907;28;20570;-76
2021/06/30 14:05:29;;;;;;;1.80;1.42;;;;;;;;;;5003250;28;20121;-76
2021/06/30 14:07:55;;;;;;;3.65;1.60;;;;;;;;;;4995559;28;20034;-75
2021/06/30 14:10:22;;;;;;;2.10;1.40;;;;;;;;;;4994295;28;20157;-75
2021/06/30 14:12:49;;;;;;;2.08;1.50;;;;;;;;;;5005271;28;20104;-76
2021/06/30 14:15:15;;;;;;;4.82;1.50;;;;;;;;;;4990879;28;20411;-76
2021/06/30 14:17:41;;;;;;;2.45;1.30;;;;;;;;;;4991324;28;20514;-76
2021/06/30 14:20:10;;;;;;;1.98;1.40;;;;;;;;;;4989889;28;20471;-77
2021/06/30 14:22:37;;;;;;;5.65;1.50;;;;;;;;;;5006478;28;20077;-76
2021/06/30 14:25:05;;;;;;;4.32;1.40;;;;;;;;;;4991216;28;20062;-75
2021/06/30 14:27:31;;;;;;;1.80;1.45;;;;;;;;;;4991270;28;20022;-76
2021/06/30 14:30:04;;;;;;;6.18;2.33;;;;;;;;;;4989829;28;20478;-76
2021/06/30 14:32:30;;;;;;;2.42;1.48;;;;;;;;;;4988207;28;20038;-74
2021/06/30 14:34:56;;;;;;;6.95;1.90;;;;;;;;;;4989508;28;20176;-74
2021/06/30 14:37:22;;;;;;;2.28;1.52;;;;;;;;;;4990002;28;20544;-76
2021/06/30 14:39:50;;;;;;;4.43;1.33;;;;;;;;;;4989357;28;20026;-76
2021/06/30 14:42:18;;;;;;;4.85;1.20;;;;;;;;;;4989490;28;20066;-77
2021/06/30 14:44:45;;;;;;;6.95;1.90;;;;;;;;;;4990057;28;20405;-75
2021/06/30 14:47:13;;;;;;;2.97;1.55;;;;;;;;;;5008161;28;20026;-76
2021/06/30 14:49:39;;;;;;;11.20;3.65;;;;;;;;;;4995666;28;20056;-77
2021/06/30 14:52:04;;;;;;;8.13;2.17;;;;;;;;;;4990586;28;20801;-75
2021/06/30 14:54:30;;;;;;;4.90;1.50;;;;;;;;;;4987072;28;20031;-75
2021/06/30 14:56:55;;;;;;;3.03;2.45;;;;;;;;;;4989563;28;20096;-77
2021/06/30 14:59:21;;;;;;;3.97;2.15;;;;;;;;;;4989287;28;20421;-76
2021/06/30 15:01:46;;;;;;;2.97;1.90;;;;;;;;;;4987388;28;20030;-76
2021/06/30 15:04:12;;;;;;;3.42;1.67;;;;;;;;;;4989140;28;20037;-76